sensor_id;sensor_type;location;lat;lon;timestamp;pressure;altitude;pressure_sealevel;temperature;humidity
61500;BME280;47361;49.996;19.918;2024-03-17T00:01:28;98799.45;;;9.3;96
61500;BME280;47361;49.996;19.918;2024-03-17T00:02:28;98800.3;;;9.2;96
61500;BME280;47361;49.996;19.918;2024-03-17T00:06:28;98802.94;;;9.3;96
61500;BME280;47361;49.996;19.918;2024-03-17T00:07:29;98803.68999999999;;;9.2;96
61500;BME280;47361;49.996;19.918;2024-03-17T00:19:28;98810.28;;;9.1;96
61500;BME280;47361;49.996;19.918;2024-03-17T00:49:29;98841.99;;;9.0;92
61500;BME280;47361;49.996;19.918;2024-03-17T00:50:28;98842.81999999999;;;9.1;91
61500;BME280;47361;49.996;19.918;2024-03-17T00:51:28;98842.0;;;9.0;90
61500;BME280;47361;49.996;19.918;2024-03-17T00:57:28;98852.15;;;8.9;89
61500;BME280;47361;49.996;19.918;2024-03-17T00:59:28;98855.25;;;8.8;88
61500;BME280;47361;49.996;19.918;2024-03-17T01:02:29;98861.17;;;8.7;86
61500;BME280;47361;49.996;19.918;2024-03-17T01:03:28;98860.20999999999;;;8.6;86
61500;BME280;47361;49.996;19.918;2024-03-17T01:06:29;98863.47;;;8.5;85
61500;BME280;47361;49.996;19.918;2024-03-17T01:07:28;98863.37;;;8.4;85
61500;BME280;47361;49.996;19.918;2024-03-17T01:08:28;98864.92;;;8.3;85
61500;BME280;47361;49.996;19.918;2024-03-17T01:10:28;98871.91;;;8.2;86
61500;BME280;47361;49.996;19.918;2024-03-17T01:12:28;98875.98000000001;;;8.1;86
61500;BME280;47361;49.996;19.918;2024-03-17T01:15:29;98879.19;;;8.2;87
61500;BME280;47361;49.996;19.918;2024-03-17T01:16:28;98877.45;;;8.1;86
61500;BME280;47361;49.996;19.918;2024-03-17T01:19:28;98879.63;;;8.0;87
61500;BME280;47361;49.996;19.918;2024-03-17T01:20:28;98878.77;;;8.1;86
61500;BME280;47361;49.996;19.918;2024-03-17T01:23:28;98881.62;;;8.0;87
61500;BME280;47361;49.996;19.918;2024-03-17T01:24:28;98887.62000000001;;;7.9;87
61500;BME280;47361;49.996;19.918;2024-03-17T01:27:28;98889.53;;;7.8;86
61500;BME280;47361;49.996;19.918;2024-03-17T01:31:28;98911.22;;;7.7;86
61500;BME280;47361;49.996;19.918;2024-03-17T01:34:28;98916.87;;;7.5;86
61500;BME280;47361;49.996;19.918;2024-03-17T01:35:28;98909.34;;;7.6;85
61500;BME280;47361;49.996;19.918;2024-03-17T01:37:28;98922.88;;;7.5;85
61500;BME280;47361;49.996;19.918;2024-03-17T01:38:29;98929.5;;;7.4;85
61500;BME280;47361;49.996;19.918;2024-03-17T01:44:28;98939.21;;;7.3;86
61500;BME280;47361;49.996;19.918;2024-03-17T01:47:28;98938.98000000001;;;7.2;84
61500;BME280;47361;49.996;19.918;2024-03-17T01:52:29;98951.73;;;7.0;83
61500;BME280;47361;49.996;19.918;2024-03-17T01:54:28;98959.64;;;6.9;84
61500;BME280;47361;49.996;19.918;2024-03-17T01:57:28;98958.37;;;6.8;83
61500;BME280;47361;49.996;19.918;2024-03-17T01:58:29;98966.27;;;6.7;82
61500;BME280;47361;49.996;19.918;2024-03-17T02:03:29;98978.62;;;6.6;84
61500;BME280;47361;49.996;19.918;2024-03-17T02:14:29;98989.87;;;6.5;82
61500;BME280;47361;49.996;19.918;2024-03-17T02:15:28;98993.38;;;6.6;82
61500;BME280;47361;49.996;19.918;2024-03-17T02:17:28;98998.73999999999;;;6.5;81
61500;BME280;47361;49.996;19.918;2024-03-17T02:19:28;99005.88;;;6.4;81
61500;BME280;47361;49.996;19.918;2024-03-17T02:20:28;99006.02;;;6.5;82
61500;BME280;47361;49.996;19.918;2024-03-17T02:22:28;99014.43000000001;;;6.4;81
61500;BME280;47361;49.996;19.918;2024-03-17T02:23:28;99008.54000000001;;;6.3;81
61500;BME280;47361;49.996;19.918;2024-03-17T02:24:28;99014.23;;;6.4;81
61500;BME280;47361;49.996;19.918;2024-03-17T02:28:29;99023.25;;;6.3;81
61500;BME280;47361;49.996;19.918;2024-03-17T02:30:28;99026.65;;;6.4;81
61500;BME280;47361;49.996;19.918;2024-03-17T02:31:28;99027.56000000001;;;6.3;80
61500;BME280;47361;49.996;19.918;2024-03-17T02:34:28;99028.99;;;6.2;81
61500;BME280;47361;49.996;19.918;2024-03-17T02:35:28;99032.78;;;6.3;81
61500;BME280;47361;49.996;19.918;2024-03-17T02:37:28;99034.14;;;6.2;80
61500;BME280;47361;49.996;19.918;2024-03-17T02:39:29;99032.81;;;6.1;81
61500;BME280;47361;49.996;19.918;2024-03-17T02:40:29;99037.36;;;6.2;81
61500;BME280;47361;49.996;19.918;2024-03-17T02:41:29;99038.09;;;6.1;81
61500;BME280;47361;49.996;19.918;2024-03-17T02:47:28;99047.20999999999;;;6.0;82
61500;BME280;47361;49.996;19.918;2024-03-17T02:50:29;99053.44;;;6.1;82
61500;BME280;47361;49.996;19.918;2024-03-17T02:52:29;99055.53;;;6.0;82
61500;BME280;47361;49.996;19.918;2024-03-17T02:59:28;99064.04;;;5.9;83
61500;BME280;47361;49.996;19.918;2024-03-17T03:08:29;99063.28;;;5.8;84
61500;BME280;47361;49.996;19.918;2024-03-17T03:13:28;99063.33;;;5.7;85
61500;BME280;47361;49.996;19.918;2024-03-17T03:15:30;99063.08;;;5.8;85
61500;BME280;47361;49.996;19.918;2024-03-17T03:18:28;99062.27;;;5.7;85
61500;BME280;47361;49.996;19.918;2024-03-17T03:20:29;99065.59999999999;;;5.8;85
61500;BME280;47361;49.996;19.918;2024-03-17T03:22:28;99060.69;;;5.7;86
61500;BME280;47361;49.996;19.918;2024-03-17T03:24:28;99063.5;;;5.8;86
61500;BME280;47361;49.996;19.918;2024-03-17T03:27:28;99060.63;;;5.7;86
61500;BME280;47361;49.996;19.918;2024-03-17T03:32:29;99070.01000000001;;;5.6;86
61500;BME280;47361;49.996;19.918;2024-03-17T03:37:28;99068.29000000001;;;5.5;87
61500;BME280;47361;49.996;19.918;2024-03-17T03:46:29;99065.5;;;5.4;87
61500;BME280;47361;49.996;19.918;2024-03-17T03:53:28;99075.25;;;5.3;88
61500;BME280;47361;49.996;19.918;2024-03-17T03:55:28;99079.02;;;5.4;87
61500;BME280;47361;49.996;19.918;2024-03-17T03:56:28;99078.59;;;5.3;87
61500;BME280;47361;49.996;19.918;2024-03-17T04:08:29;99090.83;;;5.2;88
61500;BME280;47361;49.996;19.918;2024-03-17T04:10:29;99094.09000000001;;;5.3;88
61500;BME280;47361;49.996;19.918;2024-03-17T04:12:29;99093.67;;;5.2;89
61500;BME280;47361;49.996;19.918;2024-03-17T04:20:29;99097.22;;;5.3;89
61500;BME280;47361;49.996;19.918;2024-03-17T04:22:29;99096.06;;;5.2;89
61500;BME280;47361;49.996;19.918;2024-03-17T04:23:29;99104.19;;;5.3;89
61500;BME280;47361;49.996;19.918;2024-03-17T04:35:29;99098.99;;;5.4;88
61500;BME280;47361;49.996;19.918;2024-03-17T04:38:29;99103.12;;;5.3;88
61500;BME280;47361;49.996;19.918;2024-03-17T04:40:29;99106.82;;;5.4;88
61500;BME280;47361;49.996;19.918;2024-03-17T04:42:29;99107.54;;;5.3;88
61500;BME280;47361;49.996;19.918;2024-03-17T04:43:29;99107.0;;;5.4;88
61500;BME280;47361;49.996;19.918;2024-03-17T04:54:30;99122.33;;;5.3;83
61500;BME280;47361;49.996;19.918;2024-03-17T05:02:29;99128.11;;;5.2;79
61500;BME280;47361;49.996;19.918;2024-03-17T05:05:29;99131.14;;;5.3;80
61500;BME280;47361;49.996;19.918;2024-03-17T05:07:29;99135.14;;;5.2;80
61500;BME280;47361;49.996;19.918;2024-03-17T05:09:29;99139.94;;;5.3;81
61500;BME280;47361;49.996;19.918;2024-03-17T05:10:29;99143.0;;;5.2;80
61500;BME280;47361;49.996;19.918;2024-03-17T05:14:29;99154.98999999999;;;5.0;77
61500;BME280;47361;49.996;19.918;2024-03-17T05:16:29;99159.19;;;5.1;76
61500;BME280;47361;49.996;19.918;2024-03-17T05:17:29;99159.48;;;5.0;76
61500;BME280;47361;49.996;19.918;2024-03-17T05:19:29;99160.74;;;4.9;74
61500;BME280;47361;49.996;19.918;2024-03-17T05:22:29;99164.62;;;4.8;73
61500;BME280;47361;49.996;19.918;2024-03-17T05:28:29;99168.66;;;4.7;73
61500;BME280;47361;49.996;19.918;2024-03-17T05:29:29;99170.12;;;4.8;74
61500;BME280;47361;49.996;19.918;2024-03-17T05:30:29;99176.92;;;4.7;74
61500;BME280;47361;49.996;19.918;2024-03-17T05:36:29;99181.16;;;4.6;74
61500;BME280;47361;49.996;19.918;2024-03-17T05:39:29;99185.13;;;4.7;74
61500;BME280;47361;49.996;19.918;2024-03-17T05:47:29;99189.87;;;4.6;76
61500;BME280;47361;49.996;19.918;2024-03-17T05:51:29;99194.53;;;4.5;77
61500;BME280;47361;49.996;19.918;2024-03-17T05:52:29;99196.15;;;4.6;77
61500;BME280;47361;49.996;19.918;2024-03-17T06:04:29;99213.31;;;4.7;74
61500;BME280;47361;49.996;19.918;2024-03-17T06:05:31;99208.78;;;4.6;73
61500;BME280;47361;49.996;19.918;2024-03-17T06:10:29;99205.3;;;4.7;73
61500;BME280;47361;49.996;19.918;2024-03-17T06:12:29;99203.91;;;4.6;72
61500;BME280;47361;49.996;19.918;2024-03-17T06:13:29;99208.45000000001;;;4.7;72
61500;BME280;47361;49.996;19.918;2024-03-17T06:15:29;99208.28;;;4.6;72
61500;BME280;47361;49.996;19.918;2024-03-17T06:16:29;99208.23000000001;;;4.7;72
61500;BME280;47361;49.996;19.918;2024-03-17T06:17:29;99209.48;;;4.6;71
61500;BME280;47361;49.996;19.918;2024-03-17T06:19:30;99206.03;;;4.7;69
61500;BME280;47361;49.996;19.918;2024-03-17T06:32:29;99214.37;;;4.8;70
61500;BME280;47361;49.996;19.918;2024-03-17T06:34:29;99210.91;;;4.9;70
61500;BME280;47361;49.996;19.918;2024-03-17T06:35:29;99214.53;;;4.8;69
61500;BME280;47361;49.996;19.918;2024-03-17T06:42:29;99219.8;;;4.7;69
61500;BME280;47361;49.996;19.918;2024-03-17T06:43:29;99224.41;;;4.8;69
61500;BME280;47361;49.996;19.918;2024-03-17T06:45:29;99227.61;;;4.7;68
61500;BME280;47361;49.996;19.918;2024-03-17T06:46:29;99227.22;;;4.8;68
61500;BME280;47361;49.996;19.918;2024-03-17T06:49:29;99221.3;;;4.9;69
61500;BME280;47361;49.996;19.918;2024-03-17T06:57:29;99226.34000000001;;;4.8;67
61500;BME280;47361;49.996;19.918;2024-03-17T06:58:29;99228.06;;;4.9;68
61500;BME280;47361;49.996;19.918;2024-03-17T07:00:29;99230.02;;;5.0;68
61500;BME280;47361;49.996;19.918;2024-03-17T07:01:29;99230.04;;;4.9;68
61500;BME280;47361;49.996;19.918;2024-03-17T07:03:29;99223.83;;;5.0;68
61500;BME280;47361;49.996;19.918;2024-03-17T07:04:29;99221.97;;;5.1;68
61500;BME280;47361;49.996;19.918;2024-03-17T07:08:29;99222.46;;;5.2;69
61500;BME280;47361;49.996;19.918;2024-03-17T07:12:29;99217.97;;;5.3;68
61500;BME280;47361;49.996;19.918;2024-03-17T07:13:29;99217.16;;;5.2;68
61500;BME280;47361;49.996;19.918;2024-03-17T07:14:29;99219.12;;;5.3;68
61500;BME280;47361;49.996;19.918;2024-03-17T07:15:29;99219.26;;;5.4;68
61500;BME280;47361;49.996;19.918;2024-03-17T07:16:29;99208.23000000001;;;5.3;67
61500;BME280;47361;49.996;19.918;2024-03-17T07:23:29;99208.84;;;5.2;65
61500;BME280;47361;49.996;19.918;2024-03-17T07:24:29;99209.16;;;5.3;64
61500;BME280;47361;49.996;19.918;2024-03-17T07:25:29;99205.19;;;5.2;64
61500;BME280;47361;49.996;19.918;2024-03-17T07:26:29;99205.45;;;5.3;64
61500;BME280;47361;49.996;19.918;2024-03-17T07:27:29;99208.47;;;5.2;64
61500;BME280;47361;49.996;19.918;2024-03-17T07:29:29;99209.70999999999;;;5.3;64
61500;BME280;47361;49.996;19.918;2024-03-17T07:31:29;99205.88;;;5.4;66
61500;BME280;47361;49.996;19.918;2024-03-17T07:34:30;99201.47;;;5.5;65
61500;BME280;47361;49.996;19.918;2024-03-17T07:37:29;99204.1;;;5.4;64
61500;BME280;47361;49.996;19.918;2024-03-17T07:43:30;99207.70999999999;;;5.5;65
61500;BME280;47361;49.996;19.918;2024-03-17T07:48:29;99210.36;;;5.6;63
61500;BME280;47361;49.996;19.918;2024-03-17T07:50:29;99215.36;;;5.7;63
61500;BME280;47361;49.996;19.918;2024-03-17T07:51:29;99211.45;;;5.6;61
61500;BME280;47361;49.996;19.918;2024-03-17T07:54:29;99212.3;;;5.7;62
61500;BME280;47361;49.996;19.918;2024-03-17T07:56:29;99215.84;;;5.6;62
61500;BME280;47361;49.996;19.918;2024-03-17T07:58:29;99222.52;;;5.5;62
61500;BME280;47361;49.996;19.918;2024-03-17T08:02:29;99214.5;;;5.6;63
61500;BME280;47361;49.996;19.918;2024-03-17T08:03:29;99219.95;;;5.7;65
61500;BME280;47361;49.996;19.918;2024-03-17T08:04:29;99213.67;;;5.8;64
61500;BME280;47361;49.996;19.918;2024-03-17T08:08:29;99217.9;;;5.9;61
61500;BME280;47361;49.996;19.918;2024-03-17T08:10:29;99213.31;;;5.8;61
61500;BME280;47361;49.996;19.918;2024-03-17T08:12:29;99207.89;;;5.7;60
61500;BME280;47361;49.996;19.918;2024-03-17T08:16:29;99222.49;;;5.6;62
61500;BME280;47361;49.996;19.918;2024-03-17T08:19:29;99216.33;;;5.7;63
61500;BME280;47361;49.996;19.918;2024-03-17T08:21:29;99210.92;;;5.8;63
61500;BME280;47361;49.996;19.918;2024-03-17T08:23:29;99210.1;;;5.9;62
61500;BME280;47361;49.996;19.918;2024-03-17T08:24:29;99213.92;;;6.0;63
61500;BME280;47361;49.996;19.918;2024-03-17T08:31:29;99213.84000000001;;;5.9;60
61500;BME280;47361;49.996;19.918;2024-03-17T08:34:29;99211.3;;;6.0;58
61500;BME280;47361;49.996;19.918;2024-03-17T08:37:29;99208.48;;;6.1;59
61500;BME280;47361;49.996;19.918;2024-03-17T08:39:29;99212.22;;;6.2;58
61500;BME280;47361;49.996;19.918;2024-03-17T08:40:29;99206.55;;;6.1;58
61500;BME280;47361;49.996;19.918;2024-03-17T08:41:29;99206.01000000001;;;6.2;59
61500;BME280;47361;49.996;19.918;2024-03-17T08:43:29;99215.14;;;6.3;58
61500;BME280;47361;49.996;19.918;2024-03-17T08:45:29;99214.87;;;6.2;57
61500;BME280;47361;49.996;19.918;2024-03-17T08:48:29;99211.06999999999;;;6.1;55
61500;BME280;47361;49.996;19.918;2024-03-17T08:51:29;99217.71;;;6.0;56
61500;BME280;47361;49.996;19.918;2024-03-17T08:54:29;99215.42;;;6.1;56
61500;BME280;47361;49.996;19.918;2024-03-17T08:55:29;99217.3;;;6.0;57
61500;BME280;47361;49.996;19.918;2024-03-17T08:59:29;99217.64;;;6.1;57
61500;BME280;47361;49.996;19.918;2024-03-17T09:00:29;99208.98;;;6.0;56
61500;BME280;47361;49.996;19.918;2024-03-17T09:02:29;99208.28;;;6.1;57
61500;BME280;47361;49.996;19.918;2024-03-17T09:04:29;99203.47;;;6.2;56
61500;BME280;47361;49.996;19.918;2024-03-17T09:06:29;99193.4;;;6.1;56
61500;BME280;47361;49.996;19.918;2024-03-17T09:08:29;99197.70999999999;;;6.2;56
61500;BME280;47361;49.996;19.918;2024-03-17T09:09:29;99205.69;;;6.1;56
61500;BME280;47361;49.996;19.918;2024-03-17T09:13:29;99203.21;;;6.2;57
61500;BME280;47361;49.996;19.918;2024-03-17T09:14:29;99200.59;;;6.3;57
61500;BME280;47361;49.996;19.918;2024-03-17T09:16:29;99196.53;;;6.4;57
61500;BME280;47361;49.996;19.918;2024-03-17T09:18:29;99189.95;;;6.5;56
61500;BME280;47361;49.996;19.918;2024-03-17T09:20:29;99194.4;;;6.6;57
61500;BME280;47361;49.996;19.918;2024-03-17T09:22:29;99195.95000000001;;;6.5;56
61500;BME280;47361;49.996;19.918;2024-03-17T09:26:29;99191.56;;;6.6;55
61500;BME280;47361;49.996;19.918;2024-03-17T09:28:29;99190.0;;;6.7;54
61500;BME280;47361;49.996;19.918;2024-03-17T09:30:29;99187.44;;;6.6;53
61500;BME280;47361;49.996;19.918;2024-03-17T09:31:29;99193.02;;;6.7;53
61500;BME280;47361;49.996;19.918;2024-03-17T09:32:29;99190.95;;;6.6;53
61500;BME280;47361;49.996;19.918;2024-03-17T09:35:29;99180.06;;;6.7;55
61500;BME280;47361;49.996;19.918;2024-03-17T09:37:29;99174.93;;;6.6;54
61500;BME280;47361;49.996;19.918;2024-03-17T09:41:29;99185.29999999999;;;6.7;54
61500;BME280;47361;49.996;19.918;2024-03-17T09:43:29;99182.15;;;6.8;55
61500;BME280;47361;49.996;19.918;2024-03-17T09:44:29;99178.61;;;6.9;54
61500;BME280;47361;49.996;19.918;2024-03-17T09:45:29;99190.25;;;7.0;55
61500;BME280;47361;49.996;19.918;2024-03-17T09:49:29;99186.28;;;7.1;55
61500;BME280;47361;49.996;19.918;2024-03-17T09:50:29;99182.22;;;7.2;54
61500;BME280;47361;49.996;19.918;2024-03-17T09:52:29;99183.94;;;7.1;51
61500;BME280;47361;49.996;19.918;2024-03-17T09:53:29;99174.2;;;7.3;52
61500;BME280;47361;49.996;19.918;2024-03-17T09:56:29;99177.53;;;7.4;52
61500;BME280;47361;49.996;19.918;2024-03-17T09:58:29;99177.73;;;7.5;53
61500;BME280;47361;49.996;19.918;2024-03-17T10:00:29;99169.65;;;7.4;50
61500;BME280;47361;49.996;19.918;2024-03-17T10:06:29;99166.22;;;7.7;53
61500;BME280;47361;49.996;19.918;2024-03-17T10:09:29;99164.4;;;7.8;51
61500;BME280;47361;49.996;19.918;2024-03-17T10:13:29;99157.19;;;7.9;51
61500;BME280;47361;49.996;19.918;2024-03-17T10:14:29;99161.1;;;7.8;51
61500;BME280;47361;49.996;19.918;2024-03-17T10:15:29;99168.33;;;7.7;51
61500;BME280;47361;49.996;19.918;2024-03-17T10:16:29;99161.23999999999;;;7.6;50
61500;BME280;47361;49.996;19.918;2024-03-17T10:18:29;99158.03;;;7.7;51
61500;BME280;47361;49.996;19.918;2024-03-17T10:21:29;99157.56;;;7.6;50
61500;BME280;47361;49.996;19.918;2024-03-17T10:23:29;99165.25;;;7.5;50
61500;BME280;47361;49.996;19.918;2024-03-17T10:24:29;99159.14;;;7.4;50
61500;BME280;47361;49.996;19.918;2024-03-17T10:26:29;99156.95;;;7.3;50
61500;BME280;47361;49.996;19.918;2024-03-17T10:30:29;99152.93000000001;;;7.2;51
61500;BME280;47361;49.996;19.918;2024-03-17T10:32:29;99149.67;;;7.1;51
61500;BME280;47361;49.996;19.918;2024-03-17T10:33:29;99149.34;;;7.0;49
61500;BME280;47361;49.996;19.918;2024-03-17T10:34:29;99147.34;;;7.2;51
61500;BME280;47361;49.996;19.918;2024-03-17T10:36:29;99145.42;;;7.1;48
61500;BME280;47361;49.996;19.918;2024-03-17T10:42:29;99134.83;;;7.2;49
61500;BME280;47361;49.996;19.918;2024-03-17T10:43:29;99133.12;;;7.4;50
61500;BME280;47361;49.996;19.918;2024-03-17T10:44:29;99131.62999999999;;;7.5;48
61500;BME280;47361;49.996;19.918;2024-03-17T10:52:29;99133.59;;;7.6;47
61500;BME280;47361;49.996;19.918;2024-03-17T10:53:29;99132.31;;;7.7;47
61500;BME280;47361;49.996;19.918;2024-03-17T10:54:29;99131.8;;;7.8;48
61500;BME280;47361;49.996;19.918;2024-03-17T10:55:31;99128.3;;;7.9;49
61500;BME280;47361;49.996;19.918;2024-03-17T10:56:29;99135.72;;;8.0;48
61500;BME280;47361;49.996;19.918;2024-03-17T10:58:32;99128.59;;;8.2;48
61500;BME280;47361;49.996;19.918;2024-03-17T11:05:29;99129.83;;;8.3;45
61500;BME280;47361;49.996;19.918;2024-03-17T11:07:29;99125.05;;;8.4;47
61500;BME280;47361;49.996;19.918;2024-03-17T11:08:29;99131.97;;;8.5;46
61500;BME280;47361;49.996;19.918;2024-03-17T11:13:29;99126.70000000001;;;8.6;44
61500;BME280;47361;49.996;19.918;2024-03-17T11:15:34;99118.4;;;8.4;44
61500;BME280;47361;49.996;19.918;2024-03-17T11:16:29;99117.31;;;8.5;45
61500;BME280;47361;49.996;19.918;2024-03-17T11:17:29;99118.75;;;8.6;46
61500;BME280;47361;49.996;19.918;2024-03-17T11:18:29;99118.19;;;8.7;47
61500;BME280;47361;49.996;19.918;2024-03-17T11:19:29;99111.7;;;8.8;46
61500;BME280;47361;49.996;19.918;2024-03-17T11:20:29;99111.32;;;8.9;45
61500;BME280;47361;49.996;19.918;2024-03-17T11:21:29;99116.71;;;8.8;44
61500;BME280;47361;49.996;19.918;2024-03-17T11:23:29;99117.85;;;8.8;44
61500;BME280;47361;49.996;19.918;2024-03-17T11:24:29;99115.45999999999;;;8.9;45
61500;BME280;47361;49.996;19.918;2024-03-17T11:25:37;99119.29000000001;;;9.0;45
61500;BME280;47361;49.996;19.918;2024-03-17T11:26:30;99117.64;;;9.1;45
61500;BME280;47361;49.996;19.918;2024-03-17T11:31:31;99113.31999999999;;;9.0;43
61500;BME280;47361;49.996;19.918;2024-03-17T11:36:32;99107.92;;;9.1;46
61500;BME280;47361;49.996;19.918;2024-03-17T11:40:29;99102.86;;;9.1;44
61500;BME280;47361;49.996;19.918;2024-03-17T11:43:29;99099.05;;;9.2;43
61500;BME280;47361;49.996;19.918;2024-03-17T11:44:29;99098.47;;;9.3;44
61500;BME280;47361;49.996;19.918;2024-03-17T11:45:29;99098.46;;;9.4;44
61500;BME280;47361;49.996;19.918;2024-03-17T11:46:29;99105.40999999999;;;9.5;45
61500;BME280;47361;49.996;19.918;2024-03-17T11:47:32;99105.89;;;9.6;44
61500;BME280;47361;49.996;19.918;2024-03-17T11:49:29;99102.12;;;9.4;42
61500;BME280;47361;49.996;19.918;2024-03-17T11:50:29;99100.51;;;9.5;43
61500;BME280;47361;49.996;19.918;2024-03-17T11:51:29;99103.42000000001;;;9.4;42
61500;BME280;47361;49.996;19.918;2024-03-17T11:54:29;99090.12;;;9.5;43
61500;BME280;47361;49.996;19.918;2024-03-17T11:58:29;99081.52;;;9.6;42
61500;BME280;47361;49.996;19.918;2024-03-17T12:02:29;99081.86;;;9.7;42
61500;BME280;47361;49.996;19.918;2024-03-17T12:05:29;99080.43000000001;;;9.6;40
61500;BME280;47361;49.996;19.918;2024-03-17T12:09:29;99070.22;;;9.4;41
61500;BME280;47361;49.996;19.918;2024-03-17T12:10:29;99076.2;;;9.3;42
61500;BME280;47361;49.996;19.918;2024-03-17T12:11:29;99085.6;;;9.4;43
61500;BME280;47361;49.996;19.918;2024-03-17T12:12:29;99071.04000000001;;;9.3;43
61500;BME280;47361;49.996;19.918;2024-03-17T12:13:32;99084.84;;;9.4;43
61500;BME280;47361;49.996;19.918;2024-03-17T12:17:29;99073.61;;;9.5;43
61500;BME280;47361;49.996;19.918;2024-03-17T12:18:29;99064.68;;;9.6;42
61500;BME280;47361;49.996;19.918;2024-03-17T12:19:29;99058.51;;;9.7;43
61500;BME280;47361;49.996;19.918;2024-03-17T12:20:29;99057.22;;;9.8;44
61500;BME280;47361;49.996;19.918;2024-03-17T12:22:29;99052.20000000001;;;9.9;42
61500;BME280;47361;49.996;19.918;2024-03-17T12:23:29;99051.47;;;10.0;41
61500;BME280;47361;49.996;19.918;2024-03-17T12:24:30;99058.36;;;10.1;42
61500;BME280;47361;49.996;19.918;2024-03-17T12:25:29;99056.2;;;10.0;41
61500;BME280;47361;49.996;19.918;2024-03-17T12:27:29;99062.64;;;9.9;41
61500;BME280;47361;49.996;19.918;2024-03-17T12:29:29;99065.88;;;9.7;41
61500;BME280;47361;49.996;19.918;2024-03-17T12:30:29;99062.87;;;9.6;43
61500;BME280;47361;49.996;19.918;2024-03-17T12:31:29;99068.14;;;9.3;42
61500;BME280;47361;49.996;19.918;2024-03-17T12:32:29;99063.12000000001;;;9.4;43
61500;BME280;47361;49.996;19.918;2024-03-17T12:36:29;99061.06;;;9.3;42
61500;BME280;47361;49.996;19.918;2024-03-17T12:37:29;99061.36;;;9.2;41
61500;BME280;47361;49.996;19.918;2024-03-17T12:38:29;99058.01;;;9.1;41
61500;BME280;47361;49.996;19.918;2024-03-17T12:41:29;99053.72;;;9.2;42
61500;BME280;47361;49.996;19.918;2024-03-17T12:42:29;99052.76;;;9.3;43
61500;BME280;47361;49.996;19.918;2024-03-17T12:43:29;99051.9;;;9.4;43
61500;BME280;47361;49.996;19.918;2024-03-17T12:45:29;99055.86;;;9.3;42
61500;BME280;47361;49.996;19.918;2024-03-17T12:46:29;99055.36;;;9.1;42
61500;BME280;47361;49.996;19.918;2024-03-17T12:48:29;99041.54999999999;;;8.9;42
61500;BME280;47361;49.996;19.918;2024-03-17T12:49:29;99052.47;;;8.8;42
61500;BME280;47361;49.996;19.918;2024-03-17T12:50:29;99055.05;;;8.6;42
61500;BME280;47361;49.996;19.918;2024-03-17T12:52:29;99060.93;;;8.5;42
61500;BME280;47361;49.996;19.918;2024-03-17T12:56:29;99048.63;;;8.4;43
61500;BME280;47361;49.996;19.918;2024-03-17T12:58:29;99047.5;;;8.6;43
61500;BME280;47361;49.996;19.918;2024-03-17T12:59:36;99044.67;;;8.7;44
61500;BME280;47361;49.996;19.918;2024-03-17T13:00:29;99048.68000000001;;;8.8;43
61500;BME280;47361;49.996;19.918;2024-03-17T13:01:29;99043.62;;;8.9;43
61500;BME280;47361;49.996;19.918;2024-03-17T13:04:29;99047.27;;;9.0;43
61500;BME280;47361;49.996;19.918;2024-03-17T13:05:29;99043.25;;;9.1;43
61500;BME280;47361;49.996;19.918;2024-03-17T13:06:29;99049.39;;;9.0;43
61500;BME280;47361;49.996;19.918;2024-03-17T13:07:29;99040.94;;;9.1;43
61500;BME280;47361;49.996;19.918;2024-03-17T13:10:29;99034.34;;;9.2;42
61500;BME280;47361;49.996;19.918;2024-03-17T13:12:29;99034.92;;;9.3;42
61500;BME280;47361;49.996;19.918;2024-03-17T13:13:29;99035.15;;;9.4;43
61500;BME280;47361;49.996;19.918;2024-03-17T13:16:29;99035.58;;;9.3;42
61500;BME280;47361;49.996;19.918;2024-03-17T13:21:29;99040.64;;;9.2;43
61500;BME280;47361;49.996;19.918;2024-03-17T13:23:29;99040.84;;;9.1;43
61500;BME280;47361;49.996;19.918;2024-03-17T13:24:29;99042.17;;;9.0;44
61500;BME280;47361;49.996;19.918;2024-03-17T13:26:29;99048.85;;;8.9;43
61500;BME280;47361;49.996;19.918;2024-03-17T13:30:29;99038.85;;;9.0;44
61500;BME280;47361;49.996;19.918;2024-03-17T13:31:29;99027.69;;;8.9;43
61500;BME280;47361;49.996;19.918;2024-03-17T13:33:29;99029.3;;;8.8;42
61500;BME280;47361;49.996;19.918;2024-03-17T13:35:29;99031.39;;;8.9;43
61500;BME280;47361;49.996;19.918;2024-03-17T13:36:29;99032.32;;;9.0;43
61500;BME280;47361;49.996;19.918;2024-03-17T13:37:29;99024.47;;;9.1;41
61500;BME280;47361;49.996;19.918;2024-03-17T13:38:29;99020.92;;;9.2;41
61500;BME280;47361;49.996;19.918;2024-03-17T13:39:29;99018.56;;;9.3;42
61500;BME280;47361;49.996;19.918;2024-03-17T13:41:29;99016.35;;;9.5;43
61500;BME280;47361;49.996;19.918;2024-03-17T13:42:29;99011.47;;;9.7;41
61500;BME280;47361;49.996;19.918;2024-03-17T13:43:29;99012.0;;;9.8;41
61500;BME280;47361;49.996;19.918;2024-03-17T13:46:29;99008.83;;;9.9;40
61500;BME280;47361;49.996;19.918;2024-03-17T13:47:29;99015.08;;;10.0;41
61500;BME280;47361;49.996;19.918;2024-03-17T13:51:29;99009.63;;;9.9;41
61500;BME280;47361;49.996;19.918;2024-03-17T13:52:29;99008.17;;;9.7;40
61500;BME280;47361;49.996;19.918;2024-03-17T13:53:29;99011.39;;;9.6;41
61500;BME280;47361;49.996;19.918;2024-03-17T13:54:29;99010.29;;;9.5;41
61500;BME280;47361;49.996;19.918;2024-03-17T13:55:29;99004.17;;;9.4;41
61500;BME280;47361;49.996;19.918;2024-03-17T13:57:29;99009.53;;;9.5;42
61500;BME280;47361;49.996;19.918;2024-03-17T13:58:29;99007.51000000001;;;9.6;41
61500;BME280;47361;49.996;19.918;2024-03-17T13:59:29;99006.73000000001;;;9.5;40
61500;BME280;47361;49.996;19.918;2024-03-17T14:00:29;99001.93000000001;;;9.7;40
61500;BME280;47361;49.996;19.918;2024-03-17T14:02:29;98995.86;;;9.8;40
61500;BME280;47361;49.996;19.918;2024-03-17T14:03:29;98997.89;;;9.9;40
61500;BME280;47361;49.996;19.918;2024-03-17T14:04:29;98997.28;;;10.0;40
61500;BME280;47361;49.996;19.918;2024-03-17T14:05:29;98995.78;;;10.1;39
61500;BME280;47361;49.996;19.918;2024-03-17T14:06:29;99000.9;;;10.2;39
61500;BME280;47361;49.996;19.918;2024-03-17T14:07:29;99002.20000000001;;;10.3;38